Terminal Aerodrome Forecast
Issued by NWS Louisville, KY

Home | Current Version | Previous Version | Text Only | Print | Product List | Glossary On
Versions: 1 2 3 4 5 6 7 8 9 10 11 12
000
FTUS43 KLMK 260520
TAFSDF
TAF
KSDF 260520Z 2606/2712 00000KT P6SM SKC
     FM261500 35007KT P6SM BKN045
     FM270100 03003KT P6SM SKC=

USA.gov is the U.S. government's official web portal to all federal, state and local government web resources and services.